sensor_id;sensor_type;location;lat;lon;timestamp;P1;durP1;ratioP1;P2;durP2;ratioP2
63018;SDS011;49105;46.046;10.760;2023-08-31T00:00:35;1.70;;;1.70;;
63018;SDS011;49105;46.046;10.760;2023-08-31T00:03:01;1.80;;;1.80;;
63018;SDS011;49105;46.046;10.760;2023-08-31T00:05:27;1.70;;;1.70;;
63018;SDS011;49105;46.046;10.760;2023-08-31T00:07:55;2.10;;;2.10;;
63018;SDS011;49105;46.046;10.760;2023-08-31T00:10:21;1.80;;;1.80;;
63018;SDS011;49105;46.046;10.760;2023-08-31T00:12:48;2.10;;;2.10;;
63018;SDS011;49105;46.046;10.760;2023-08-31T00:15:14;2.05;;;2.05;;
63018;SDS011;49105;46.046;10.760;2023-08-31T00:17:40;1.90;;;1.90;;
63018;SDS011;49105;46.046;10.760;2023-08-31T00:20:06;2.10;;;2.10;;
63018;SDS011;49105;46.046;10.760;2023-08-31T00:22:36;1.90;;;1.90;;
63018;SDS011;49105;46.046;10.760;2023-08-31T00:25:04;1.80;;;1.80;;
63018;SDS011;49105;46.046;10.760;2023-08-31T00:27:32;2.00;;;2.00;;
63018;SDS011;49105;46.046;10.760;2023-08-31T00:29:58;1.73;;;1.73;;
63018;SDS011;49105;46.046;10.760;2023-08-31T00:32:24;2.00;;;2.00;;
63018;SDS011;49105;46.046;10.760;2023-08-31T00:34:50;2.65;;;2.55;;
63018;SDS011;49105;46.046;10.760;2023-08-31T00:37:16;1.90;;;1.90;;
63018;SDS011;49105;46.046;10.760;2023-08-31T00:39:43;1.92;;;1.92;;
63018;SDS011;49105;46.046;10.760;2023-08-31T00:42:09;1.90;;;1.90;;
63018;SDS011;49105;46.046;10.760;2023-08-31T00:44:35;1.98;;;1.98;;
63018;SDS011;49105;46.046;10.760;2023-08-31T00:47:01;2.00;;;2.00;;
63018;SDS011;49105;46.046;10.760;2023-08-31T00:49:29;2.40;;;2.35;;
63018;SDS011;49105;46.046;10.760;2023-08-31T00:51:56;2.08;;;2.08;;
63018;SDS011;49105;46.046;10.760;2023-08-31T00:54:22;2.00;;;2.00;;
63018;SDS011;49105;46.046;10.760;2023-08-31T00:56:52;1.90;;;1.90;;
63018;SDS011;49105;46.046;10.760;2023-08-31T00:59:19;2.37;;;2.37;;
63018;SDS011;49105;46.046;10.760;2023-08-31T01:01:49;2.00;;;2.00;;
63018;SDS011;49105;46.046;10.760;2023-08-31T01:12:22;1.80;;;1.80;;
63018;SDS011;49105;46.046;10.760;2023-08-31T01:14:56;2.00;;;2.00;;
63018;SDS011;49105;46.046;10.760;2023-08-31T01:17:28;2.00;;;2.00;;
63018;SDS011;49105;46.046;10.760;2023-08-31T01:19:57;2.17;;;2.17;;
63018;SDS011;49105;46.046;10.760;2023-08-31T01:22:33;2.10;;;2.10;;
63018;SDS011;49105;46.046;10.760;2023-08-31T01:25:08;2.10;;;2.10;;
63018;SDS011;49105;46.046;10.760;2023-08-31T01:27:35;2.10;;;2.10;;
63018;SDS011;49105;46.046;10.760;2023-08-31T01:30:03;2.00;;;2.00;;
63018;SDS011;49105;46.046;10.760;2023-08-31T01:32:30;1.90;;;1.90;;
63018;SDS011;49105;46.046;10.760;2023-08-31T01:34:56;1.90;;;1.90;;
63018;SDS011;49105;46.046;10.760;2023-08-31T01:40:06;1.90;;;1.90;;
63018;SDS011;49105;46.046;10.760;2023-08-31T01:42:53;1.90;;;1.90;;
63018;SDS011;49105;46.046;10.760;2023-08-31T01:45:20;2.00;;;2.00;;
63018;SDS011;49105;46.046;10.760;2023-08-31T01:47:48;1.90;;;1.90;;
63018;SDS011;49105;46.046;10.760;2023-08-31T01:50:14;1.88;;;1.88;;
63018;SDS011;49105;46.046;10.760;2023-08-31T01:52:40;1.80;;;1.80;;
63018;SDS011;49105;46.046;10.760;2023-08-31T01:55:06;2.00;;;2.00;;
63018;SDS011;49105;46.046;10.760;2023-08-31T01:57:33;2.10;;;2.10;;
63018;SDS011;49105;46.046;10.760;2023-08-31T01:59:59;2.00;;;2.00;;
63018;SDS011;49105;46.046;10.760;2023-08-31T02:02:25;1.98;;;1.98;;
63018;SDS011;49105;46.046;10.760;2023-08-31T02:04:51;2.00;;;2.00;;
63018;SDS011;49105;46.046;10.760;2023-08-31T02:07:18;2.40;;;2.30;;
63018;SDS011;49105;46.046;10.760;2023-08-31T02:09:44;2.10;;;2.10;;
63018;SDS011;49105;46.046;10.760;2023-08-31T02:12:09;2.20;;;2.20;;
63018;SDS011;49105;46.046;10.760;2023-08-31T02:14:35;1.95;;;1.95;;
63018;SDS011;49105;46.046;10.760;2023-08-31T02:17:01;2.00;;;2.00;;
63018;SDS011;49105;46.046;10.760;2023-08-31T02:19:27;2.03;;;2.03;;
63018;SDS011;49105;46.046;10.760;2023-08-31T02:21:53;1.92;;;1.92;;
63018;SDS011;49105;46.046;10.760;2023-08-31T02:24:19;1.90;;;1.90;;
63018;SDS011;49105;46.046;10.760;2023-08-31T02:26:45;2.05;;;2.05;;
63018;SDS011;49105;46.046;10.760;2023-08-31T02:29:11;2.10;;;2.10;;
63018;SDS011;49105;46.046;10.760;2023-08-31T02:31:37;2.00;;;2.00;;
63018;SDS011;49105;46.046;10.760;2023-08-31T02:34:04;2.10;;;2.10;;
63018;SDS011;49105;46.046;10.760;2023-08-31T02:36:30;2.00;;;2.00;;
63018;SDS011;49105;46.046;10.760;2023-08-31T02:38:56;1.90;;;1.90;;
63018;SDS011;49105;46.046;10.760;2023-08-31T02:41:22;1.73;;;1.73;;
63018;SDS011;49105;46.046;10.760;2023-08-31T02:43:52;1.90;;;1.90;;
63018;SDS011;49105;46.046;10.760;2023-08-31T02:46:17;1.90;;;1.90;;
63018;SDS011;49105;46.046;10.760;2023-08-31T02:48:43;2.05;;;2.05;;
63018;SDS011;49105;46.046;10.760;2023-08-31T02:51:10;1.95;;;1.95;;
63018;SDS011;49105;46.046;10.760;2023-08-31T02:53:35;1.90;;;1.90;;
63018;SDS011;49105;46.046;10.760;2023-08-31T02:56:01;1.80;;;1.80;;
63018;SDS011;49105;46.046;10.760;2023-08-31T02:58:27;1.95;;;1.95;;
63018;SDS011;49105;46.046;10.760;2023-08-31T03:00:52;2.00;;;2.00;;
63018;SDS011;49105;46.046;10.760;2023-08-31T03:03:18;1.95;;;1.95;;
63018;SDS011;49105;46.046;10.760;2023-08-31T03:05:44;2.22;;;2.22;;
63018;SDS011;49105;46.046;10.760;2023-08-31T03:08:11;2.33;;;2.33;;
63018;SDS011;49105;46.046;10.760;2023-08-31T03:10:37;1.90;;;1.90;;
63018;SDS011;49105;46.046;10.760;2023-08-31T03:13:03;1.90;;;1.90;;
63018;SDS011;49105;46.046;10.760;2023-08-31T03:15:29;1.70;;;1.70;;
63018;SDS011;49105;46.046;10.760;2023-08-31T03:17:58;2.00;;;2.00;;
63018;SDS011;49105;46.046;10.760;2023-08-31T03:20:24;2.10;;;2.10;;
63018;SDS011;49105;46.046;10.760;2023-08-31T03:22:50;2.20;;;2.20;;
63018;SDS011;49105;46.046;10.760;2023-08-31T03:25:16;3.22;;;3.03;;
63018;SDS011;49105;46.046;10.760;2023-08-31T03:27:43;1.90;;;1.90;;
63018;SDS011;49105;46.046;10.760;2023-08-31T03:30:09;2.00;;;2.00;;
63018;SDS011;49105;46.046;10.760;2023-08-31T03:32:36;1.90;;;1.90;;
63018;SDS011;49105;46.046;10.760;2023-08-31T03:35:02;2.00;;;2.00;;
63018;SDS011;49105;46.046;10.760;2023-08-31T03:37:29;1.60;;;1.60;;
63018;SDS011;49105;46.046;10.760;2023-08-31T03:39:54;1.90;;;1.90;;
63018;SDS011;49105;46.046;10.760;2023-08-31T03:42:20;2.97;;;2.78;;
63018;SDS011;49105;46.046;10.760;2023-08-31T03:44:46;2.13;;;2.03;;
63018;SDS011;49105;46.046;10.760;2023-08-31T03:47:13;2.00;;;2.00;;
63018;SDS011;49105;46.046;10.760;2023-08-31T03:49:39;1.90;;;1.90;;
63018;SDS011;49105;46.046;10.760;2023-08-31T03:52:05;2.10;;;2.10;;
63018;SDS011;49105;46.046;10.760;2023-08-31T03:54:31;2.10;;;2.10;;
63018;SDS011;49105;46.046;10.760;2023-08-31T03:56:57;2.10;;;2.10;;
63018;SDS011;49105;46.046;10.760;2023-08-31T03:59:23;1.90;;;1.90;;
63018;SDS011;49105;46.046;10.760;2023-08-31T04:01:49;1.80;;;1.80;;
63018;SDS011;49105;46.046;10.760;2023-08-31T04:04:15;1.80;;;1.80;;
63018;SDS011;49105;46.046;10.760;2023-08-31T04:06:41;1.63;;;1.63;;
63018;SDS011;49105;46.046;10.760;2023-08-31T04:09:07;2.05;;;2.05;;
63018;SDS011;49105;46.046;10.760;2023-08-31T04:11:33;8.70;;;1.92;;
63018;SDS011;49105;46.046;10.760;2023-08-31T04:13:59;1.80;;;1.80;;
63018;SDS011;49105;46.046;10.760;2023-08-31T04:16:26;2.67;;;2.58;;
63018;SDS011;49105;46.046;10.760;2023-08-31T04:18:52;1.60;;;1.60;;
63018;SDS011;49105;46.046;10.760;2023-08-31T04:21:18;1.65;;;1.65;;
63018;SDS011;49105;46.046;10.760;2023-08-31T04:23:44;1.80;;;1.80;;
63018;SDS011;49105;46.046;10.760;2023-08-31T04:26:11;1.70;;;1.70;;
63018;SDS011;49105;46.046;10.760;2023-08-31T04:28:38;2.58;;;2.40;;
63018;SDS011;49105;46.046;10.760;2023-08-31T04:31:05;1.60;;;1.60;;
63018;SDS011;49105;46.046;10.760;2023-08-31T04:33:33;4.63;;;2.67;;
63018;SDS011;49105;46.046;10.760;2023-08-31T04:36:03;1.70;;;1.70;;
63018;SDS011;49105;46.046;10.760;2023-08-31T04:38:30;1.67;;;1.67;;
63018;SDS011;49105;46.046;10.760;2023-08-31T04:40:59;2.00;;;2.00;;
63018;SDS011;49105;46.046;10.760;2023-08-31T04:43:25;3.10;;;1.70;;
63018;SDS011;49105;46.046;10.760;2023-08-31T04:45:52;1.50;;;1.50;;
63018;SDS011;49105;46.046;10.760;2023-08-31T04:48:19;1.40;;;1.40;;
63018;SDS011;49105;46.046;10.760;2023-08-31T04:50:45;1.35;;;1.35;;
63018;SDS011;49105;46.046;10.760;2023-08-31T04:53:10;1.40;;;1.40;;
63018;SDS011;49105;46.046;10.760;2023-08-31T04:55:36;2.05;;;1.95;;
63018;SDS011;49105;46.046;10.760;2023-08-31T04:58:02;1.67;;;1.67;;
63018;SDS011;49105;46.046;10.760;2023-08-31T05:00:29;1.40;;;1.40;;
63018;SDS011;49105;46.046;10.760;2023-08-31T05:02:55;1.60;;;1.50;;
63018;SDS011;49105;46.046;10.760;2023-08-31T05:05:21;1.42;;;1.42;;
63018;SDS011;49105;46.046;10.760;2023-08-31T05:07:46;1.55;;;1.55;;
63018;SDS011;49105;46.046;10.760;2023-08-31T05:10:12;2.03;;;1.92;;
63018;SDS011;49105;46.046;10.760;2023-08-31T05:12:38;1.50;;;1.50;;
63018;SDS011;49105;46.046;10.760;2023-08-31T05:15:04;1.70;;;1.70;;
63018;SDS011;49105;46.046;10.760;2023-08-31T05:17:31;1.83;;;1.80;;
63018;SDS011;49105;46.046;10.760;2023-08-31T05:19:57;1.55;;;1.55;;
63018;SDS011;49105;46.046;10.760;2023-08-31T05:22:23;1.40;;;1.40;;
63018;SDS011;49105;46.046;10.760;2023-08-31T05:24:49;1.60;;;1.60;;
63018;SDS011;49105;46.046;10.760;2023-08-31T05:27:16;1.55;;;1.55;;
63018;SDS011;49105;46.046;10.760;2023-08-31T05:29:42;1.60;;;1.60;;
63018;SDS011;49105;46.046;10.760;2023-08-31T05:32:09;1.58;;;1.58;;
63018;SDS011;49105;46.046;10.760;2023-08-31T05:34:34;1.80;;;1.80;;
63018;SDS011;49105;46.046;10.760;2023-08-31T05:37:03;2.25;;;2.15;;
63018;SDS011;49105;46.046;10.760;2023-08-31T05:39:30;2.15;;;2.15;;
63018;SDS011;49105;46.046;10.760;2023-08-31T05:41:56;1.90;;;1.90;;
63018;SDS011;49105;46.046;10.760;2023-08-31T05:44:22;1.85;;;1.85;;
63018;SDS011;49105;46.046;10.760;2023-08-31T05:46:48;2.60;;;2.50;;
63018;SDS011;49105;46.046;10.760;2023-08-31T05:49:14;1.70;;;1.70;;
63018;SDS011;49105;46.046;10.760;2023-08-31T05:51:40;1.70;;;1.70;;
63018;SDS011;49105;46.046;10.760;2023-08-31T05:54:06;1.60;;;1.60;;
63018;SDS011;49105;46.046;10.760;2023-08-31T05:56:38;1.70;;;1.70;;
63018;SDS011;49105;46.046;10.760;2023-08-31T05:59:05;1.65;;;1.65;;
63018;SDS011;49105;46.046;10.760;2023-08-31T06:01:31;1.70;;;1.70;;
63018;SDS011;49105;46.046;10.760;2023-08-31T06:03:57;1.50;;;1.50;;
63018;SDS011;49105;46.046;10.760;2023-08-31T06:06:23;1.50;;;1.50;;
63018;SDS011;49105;46.046;10.760;2023-08-31T06:08:49;1.60;;;1.60;;
63018;SDS011;49105;46.046;10.760;2023-08-31T06:11:15;1.60;;;1.60;;
63018;SDS011;49105;46.046;10.760;2023-08-31T06:13:40;1.60;;;1.60;;
63018;SDS011;49105;46.046;10.760;2023-08-31T06:16:07;1.60;;;1.60;;
63018;SDS011;49105;46.046;10.760;2023-08-31T06:18:33;1.60;;;1.60;;
63018;SDS011;49105;46.046;10.760;2023-08-31T06:20:59;1.75;;;1.75;;
63018;SDS011;49105;46.046;10.760;2023-08-31T06:23:24;1.60;;;1.60;;
63018;SDS011;49105;46.046;10.760;2023-08-31T06:25:50;1.63;;;1.63;;
63018;SDS011;49105;46.046;10.760;2023-08-31T06:28:16;2.08;;;1.98;;
63018;SDS011;49105;46.046;10.760;2023-08-31T06:30:42;1.60;;;1.60;;
63018;SDS011;49105;46.046;10.760;2023-08-31T06:33:11;1.50;;;1.50;;
63018;SDS011;49105;46.046;10.760;2023-08-31T06:35:38;1.60;;;1.60;;
63018;SDS011;49105;46.046;10.760;2023-08-31T06:38:04;1.50;;;1.50;;
63018;SDS011;49105;46.046;10.760;2023-08-31T06:40:30;3.35;;;1.50;;
63018;SDS011;49105;46.046;10.760;2023-08-31T06:42:56;1.60;;;1.60;;
63018;SDS011;49105;46.046;10.760;2023-08-31T06:45:21;1.98;;;1.95;;
63018;SDS011;49105;46.046;10.760;2023-08-31T06:47:49;1.60;;;1.60;;
63018;SDS011;49105;46.046;10.760;2023-08-31T06:50:15;1.63;;;1.63;;
63018;SDS011;49105;46.046;10.760;2023-08-31T06:52:41;1.40;;;1.40;;
63018;SDS011;49105;46.046;10.760;2023-08-31T06:55:07;2.42;;;2.33;;
63018;SDS011;49105;46.046;10.760;2023-08-31T06:57:34;1.60;;;1.60;;
63018;SDS011;49105;46.046;10.760;2023-08-31T07:00:01;1.63;;;1.63;;
63018;SDS011;49105;46.046;10.760;2023-08-31T07:02:29;2.38;;;1.50;;
63018;SDS011;49105;46.046;10.760;2023-08-31T07:04:55;1.42;;;1.42;;
63018;SDS011;49105;46.046;10.760;2023-08-31T07:07:21;2.17;;;2.08;;
63018;SDS011;49105;46.046;10.760;2023-08-31T07:09:47;1.50;;;1.50;;
63018;SDS011;49105;46.046;10.760;2023-08-31T07:12:13;1.70;;;1.70;;
63018;SDS011;49105;46.046;10.760;2023-08-31T07:14:39;1.30;;;1.30;;
63018;SDS011;49105;46.046;10.760;2023-08-31T07:17:05;1.40;;;1.40;;
63018;SDS011;49105;46.046;10.760;2023-08-31T07:19:35;1.42;;;1.42;;
63018;SDS011;49105;46.046;10.760;2023-08-31T07:22:02;1.50;;;1.50;;
63018;SDS011;49105;46.046;10.760;2023-08-31T07:24:29;1.50;;;1.50;;
63018;SDS011;49105;46.046;10.760;2023-08-31T07:26:55;1.50;;;1.50;;
63018;SDS011;49105;46.046;10.760;2023-08-31T07:29:21;1.60;;;1.60;;
63018;SDS011;49105;46.046;10.760;2023-08-31T07:31:46;1.60;;;1.60;;
63018;SDS011;49105;46.046;10.760;2023-08-31T07:34:12;1.50;;;1.50;;
63018;SDS011;49105;46.046;10.760;2023-08-31T07:36:38;1.40;;;1.40;;
63018;SDS011;49105;46.046;10.760;2023-08-31T07:39:05;1.40;;;1.40;;
63018;SDS011;49105;46.046;10.760;2023-08-31T07:41:31;1.40;;;1.40;;
63018;SDS011;49105;46.046;10.760;2023-08-31T07:43:57;1.50;;;1.50;;
63018;SDS011;49105;46.046;10.760;2023-08-31T07:46:23;1.67;;;1.67;;
63018;SDS011;49105;46.046;10.760;2023-08-31T07:48:50;1.42;;;1.42;;
63018;SDS011;49105;46.046;10.760;2023-08-31T07:51:16;1.80;;;1.80;;
63018;SDS011;49105;46.046;10.760;2023-08-31T07:53:42;2.28;;;2.03;;
63018;SDS011;49105;46.046;10.760;2023-08-31T07:56:08;1.50;;;1.50;;
63018;SDS011;49105;46.046;10.760;2023-08-31T07:58:34;1.40;;;1.40;;
63018;SDS011;49105;46.046;10.760;2023-08-31T08:01:03;1.40;;;1.40;;
63018;SDS011;49105;46.046;10.760;2023-08-31T08:03:30;1.30;;;1.30;;
63018;SDS011;49105;46.046;10.760;2023-08-31T08:05:56;1.30;;;1.30;;
63018;SDS011;49105;46.046;10.760;2023-08-31T08:08:22;1.33;;;1.33;;
63018;SDS011;49105;46.046;10.760;2023-08-31T08:10:51;1.40;;;1.40;;
63018;SDS011;49105;46.046;10.760;2023-08-31T08:13:18;1.70;;;1.60;;
63018;SDS011;49105;46.046;10.760;2023-08-31T08:15:45;1.27;;;1.27;;
63018;SDS011;49105;46.046;10.760;2023-08-31T08:18:10;1.60;;;1.60;;
63018;SDS011;49105;46.046;10.760;2023-08-31T08:20:36;1.40;;;1.40;;
63018;SDS011;49105;46.046;10.760;2023-08-31T08:23:03;1.40;;;1.40;;
63018;SDS011;49105;46.046;10.760;2023-08-31T08:25:30;1.50;;;1.50;;
63018;SDS011;49105;46.046;10.760;2023-08-31T08:27:56;1.40;;;1.40;;
63018;SDS011;49105;46.046;10.760;2023-08-31T08:30:22;1.40;;;1.40;;
63018;SDS011;49105;46.046;10.760;2023-08-31T08:32:48;1.50;;;1.50;;
63018;SDS011;49105;46.046;10.760;2023-08-31T08:35:14;1.50;;;1.50;;
63018;SDS011;49105;46.046;10.760;2023-08-31T08:37:40;1.40;;;1.40;;
63018;SDS011;49105;46.046;10.760;2023-08-31T08:40:06;1.40;;;1.40;;
63018;SDS011;49105;46.046;10.760;2023-08-31T08:42:32;1.40;;;1.40;;
63018;SDS011;49105;46.046;10.760;2023-08-31T08:45:01;1.30;;;1.30;;
63018;SDS011;49105;46.046;10.760;2023-08-31T08:47:28;1.40;;;1.40;;
63018;SDS011;49105;46.046;10.760;2023-08-31T08:49:54;1.40;;;1.40;;
63018;SDS011;49105;46.046;10.760;2023-08-31T08:52:23;1.20;;;1.20;;
63018;SDS011;49105;46.046;10.760;2023-08-31T08:54:49;1.45;;;1.45;;
63018;SDS011;49105;46.046;10.760;2023-08-31T08:57:16;1.55;;;1.55;;
63018;SDS011;49105;46.046;10.760;2023-08-31T08:59:41;1.60;;;1.60;;
63018;SDS011;49105;46.046;10.760;2023-08-31T09:02:08;1.50;;;1.50;;
63018;SDS011;49105;46.046;10.760;2023-08-31T09:04:35;1.50;;;1.50;;
63018;SDS011;49105;46.046;10.760;2023-08-31T09:07:01;1.60;;;1.60;;
63018;SDS011;49105;46.046;10.760;2023-08-31T09:09:27;1.60;;;1.60;;
63018;SDS011;49105;46.046;10.760;2023-08-31T09:11:53;1.80;;;1.80;;
63018;SDS011;49105;46.046;10.760;2023-08-31T09:14:20;1.80;;;1.80;;
63018;SDS011;49105;46.046;10.760;2023-08-31T09:16:46;2.53;;;2.42;;
63018;SDS011;49105;46.046;10.760;2023-08-31T09:19:24;1.70;;;1.70;;
63018;SDS011;49105;46.046;10.760;2023-08-31T09:21:50;1.70;;;1.70;;
63018;SDS011;49105;46.046;10.760;2023-08-31T09:24:17;1.48;;;1.48;;
63018;SDS011;49105;46.046;10.760;2023-08-31T09:27:04;1.50;;;1.50;;
63018;SDS011;49105;46.046;10.760;2023-08-31T09:29:31;1.60;;;1.60;;
63018;SDS011;49105;46.046;10.760;2023-08-31T09:31:57;1.60;;;1.60;;
63018;SDS011;49105;46.046;10.760;2023-08-31T09:34:23;1.50;;;1.50;;
63018;SDS011;49105;46.046;10.760;2023-08-31T09:37:03;1.50;;;1.50;;
63018;SDS011;49105;46.046;10.760;2023-08-31T09:39:35;1.50;;;1.50;;
63018;SDS011;49105;46.046;10.760;2023-08-31T09:42:01;1.45;;;1.45;;
63018;SDS011;49105;46.046;10.760;2023-08-31T09:44:28;1.50;;;1.50;;
63018;SDS011;49105;46.046;10.760;2023-08-31T09:46:54;1.58;;;1.58;;
63018;SDS011;49105;46.046;10.760;2023-08-31T09:49:21;1.60;;;1.60;;
63018;SDS011;49105;46.046;10.760;2023-08-31T09:51:51;1.58;;;1.58;;
63018;SDS011;49105;46.046;10.760;2023-08-31T09:54:19;1.60;;;1.60;;
63018;SDS011;49105;46.046;10.760;2023-08-31T09:56:47;1.50;;;1.50;;
63018;SDS011;49105;46.046;10.760;2023-08-31T09:59:13;1.90;;;1.90;;
63018;SDS011;49105;46.046;10.760;2023-08-31T10:01:40;1.42;;;1.42;;
63018;SDS011;49105;46.046;10.760;2023-08-31T10:04:07;1.50;;;1.50;;
63018;SDS011;49105;46.046;10.760;2023-08-31T10:06:40;1.53;;;1.53;;
63018;SDS011;49105;46.046;10.760;2023-08-31T10:09:06;1.55;;;1.55;;
63018;SDS011;49105;46.046;10.760;2023-08-31T10:11:34;1.50;;;1.50;;
63018;SDS011;49105;46.046;10.760;2023-08-31T10:14:02;1.60;;;1.60;;
63018;SDS011;49105;46.046;10.760;2023-08-31T10:16:29;1.60;;;1.60;;
63018;SDS011;49105;46.046;10.760;2023-08-31T10:18:56;1.58;;;1.58;;
63018;SDS011;49105;46.046;10.760;2023-08-31T10:21:21;1.50;;;1.50;;
63018;SDS011;49105;46.046;10.760;2023-08-31T10:23:48;1.60;;;1.60;;
63018;SDS011;49105;46.046;10.760;2023-08-31T10:26:28;1.50;;;1.50;;
63018;SDS011;49105;46.046;10.760;2023-08-31T10:28:55;1.60;;;1.60;;
63018;SDS011;49105;46.046;10.760;2023-08-31T10:31:22;1.50;;;1.50;;
63018;SDS011;49105;46.046;10.760;2023-08-31T10:33:55;1.70;;;1.70;;
63018;SDS011;49105;46.046;10.760;2023-08-31T10:36:34;1.55;;;1.55;;
63018;SDS011;49105;46.046;10.760;2023-08-31T10:39:13;1.45;;;1.45;;
63018;SDS011;49105;46.046;10.760;2023-08-31T10:41:56;1.27;;;1.27;;
63018;SDS011;49105;46.046;10.760;2023-08-31T10:44:22;1.60;;;1.50;;
63018;SDS011;49105;46.046;10.760;2023-08-31T10:46:49;1.60;;;1.60;;
63018;SDS011;49105;46.046;10.760;2023-08-31T10:49:17;1.50;;;1.50;;
63018;SDS011;49105;46.046;10.760;2023-08-31T10:51:57;1.60;;;1.60;;
63018;SDS011;49105;46.046;10.760;2023-08-31T10:54:40;1.40;;;1.40;;
63018;SDS011;49105;46.046;10.760;2023-08-31T10:57:08;1.45;;;1.45;;
63018;SDS011;49105;46.046;10.760;2023-08-31T11:02:38;1.60;;;1.60;;
63018;SDS011;49105;46.046;10.760;2023-08-31T11:05:15;1.50;;;1.50;;
63018;SDS011;49105;46.046;10.760;2023-08-31T11:07:47;1.90;;;1.90;;
63018;SDS011;49105;46.046;10.760;2023-08-31T11:10:15;1.50;;;1.50;;
63018;SDS011;49105;46.046;10.760;2023-08-31T11:13:07;1.50;;;1.50;;
63018;SDS011;49105;46.046;10.760;2023-08-31T11:15:44;1.48;;;1.48;;
63018;SDS011;49105;46.046;10.760;2023-08-31T11:18:11;1.58;;;1.58;;
63018;SDS011;49105;46.046;10.760;2023-08-31T11:20:37;1.60;;;1.60;;
63018;SDS011;49105;46.046;10.760;2023-08-31T11:23:03;1.48;;;1.48;;
63018;SDS011;49105;46.046;10.760;2023-08-31T11:25:32;1.50;;;1.50;;
63018;SDS011;49105;46.046;10.760;2023-08-31T11:27:59;1.30;;;1.30;;
63018;SDS011;49105;46.046;10.760;2023-08-31T11:30:27;1.23;;;1.23;;
63018;SDS011;49105;46.046;10.760;2023-08-31T11:32:56;1.30;;;1.30;;
63018;SDS011;49105;46.046;10.760;2023-08-31T11:35:22;1.85;;;1.75;;
63018;SDS011;49105;46.046;10.760;2023-08-31T11:37:49;1.30;;;1.30;;
63018;SDS011;49105;46.046;10.760;2023-08-31T11:40:17;1.30;;;1.30;;
63018;SDS011;49105;46.046;10.760;2023-08-31T11:42:43;1.40;;;1.40;;
63018;SDS011;49105;46.046;10.760;2023-08-31T11:45:10;1.38;;;1.38;;
63018;SDS011;49105;46.046;10.760;2023-08-31T11:47:38;1.30;;;1.30;;
63018;SDS011;49105;46.046;10.760;2023-08-31T11:50:04;1.40;;;1.40;;
63018;SDS011;49105;46.046;10.760;2023-08-31T11:52:32;1.50;;;1.50;;
63018;SDS011;49105;46.046;10.760;2023-08-31T11:54:59;1.30;;;1.30;;
63018;SDS011;49105;46.046;10.760;2023-08-31T11:57:25;1.60;;;1.60;;
63018;SDS011;49105;46.046;10.760;2023-08-31T11:59:53;2.92;;;1.70;;
63018;SDS011;49105;46.046;10.760;2023-08-31T12:02:20;1.50;;;1.50;;
63018;SDS011;49105;46.046;10.760;2023-08-31T12:04:46;1.50;;;1.50;;
63018;SDS011;49105;46.046;10.760;2023-08-31T12:07:16;1.40;;;1.40;;
63018;SDS011;49105;46.046;10.760;2023-08-31T12:09:43;1.40;;;1.40;;
63018;SDS011;49105;46.046;10.760;2023-08-31T12:12:15;1.40;;;1.40;;
63018;SDS011;49105;46.046;10.760;2023-08-31T12:14:45;1.30;;;1.30;;
63018;SDS011;49105;46.046;10.760;2023-08-31T12:17:11;1.40;;;1.40;;
63018;SDS011;49105;46.046;10.760;2023-08-31T12:19:37;1.45;;;1.45;;
63018;SDS011;49105;46.046;10.760;2023-08-31T12:22:07;1.40;;;1.40;;
63018;SDS011;49105;46.046;10.760;2023-08-31T12:24:37;1.40;;;1.40;;
63018;SDS011;49105;46.046;10.760;2023-08-31T12:27:09;1.30;;;1.30;;
63018;SDS011;49105;46.046;10.760;2023-08-31T12:29:36;1.85;;;1.75;;
63018;SDS011;49105;46.046;10.760;2023-08-31T12:32:01;1.50;;;1.50;;
63018;SDS011;49105;46.046;10.760;2023-08-31T12:34:28;1.50;;;1.50;;
63018;SDS011;49105;46.046;10.760;2023-08-31T12:36:54;1.50;;;1.50;;
63018;SDS011;49105;46.046;10.760;2023-08-31T12:39:24;1.40;;;1.40;;
63018;SDS011;49105;46.046;10.760;2023-08-31T12:41:51;1.20;;;1.20;;
63018;SDS011;49105;46.046;10.760;2023-08-31T12:44:17;1.45;;;1.45;;
63018;SDS011;49105;46.046;10.760;2023-08-31T12:46:43;1.55;;;1.55;;
63018;SDS011;49105;46.046;10.760;2023-08-31T12:49:11;1.30;;;1.30;;
63018;SDS011;49105;46.046;10.760;2023-08-31T12:51:37;1.30;;;1.30;;
63018;SDS011;49105;46.046;10.760;2023-08-31T12:54:04;1.50;;;1.50;;
63018;SDS011;49105;46.046;10.760;2023-08-31T12:56:30;1.40;;;1.40;;
63018;SDS011;49105;46.046;10.760;2023-08-31T12:58:57;1.38;;;1.38;;
63018;SDS011;49105;46.046;10.760;2023-08-31T13:01:22;1.50;;;1.50;;
63018;SDS011;49105;46.046;10.760;2023-08-31T13:03:48;1.40;;;1.40;;
63018;SDS011;49105;46.046;10.760;2023-08-31T13:06:14;1.80;;;1.80;;
63018;SDS011;49105;46.046;10.760;2023-08-31T13:08:41;1.50;;;1.50;;
63018;SDS011;49105;46.046;10.760;2023-08-31T13:11:11;1.40;;;1.40;;
63018;SDS011;49105;46.046;10.760;2023-08-31T13:13:38;1.50;;;1.50;;
63018;SDS011;49105;46.046;10.760;2023-08-31T13:16:04;1.50;;;1.50;;
63018;SDS011;49105;46.046;10.760;2023-08-31T13:18:30;1.40;;;1.40;;
63018;SDS011;49105;46.046;10.760;2023-08-31T13:20:56;1.50;;;1.50;;
63018;SDS011;49105;46.046;10.760;2023-08-31T13:23:22;1.30;;;1.30;;
63018;SDS011;49105;46.046;10.760;2023-08-31T13:25:49;1.35;;;1.35;;
63018;SDS011;49105;46.046;10.760;2023-08-31T13:28:15;1.38;;;1.38;;
63018;SDS011;49105;46.046;10.760;2023-08-31T13:30:42;1.45;;;1.45;;
63018;SDS011;49105;46.046;10.760;2023-08-31T13:33:10;1.25;;;1.25;;
63018;SDS011;49105;46.046;10.760;2023-08-31T13:35:35;1.50;;;1.50;;
63018;SDS011;49105;46.046;10.760;2023-08-31T13:38:01;1.70;;;1.70;;
63018;SDS011;49105;46.046;10.760;2023-08-31T13:40:28;1.60;;;1.60;;
63018;SDS011;49105;46.046;10.760;2023-08-31T13:42:54;1.50;;;1.50;;
63018;SDS011;49105;46.046;10.760;2023-08-31T13:45:28;1.60;;;1.60;;
63018;SDS011;49105;46.046;10.760;2023-08-31T13:47:57;1.50;;;1.50;;
63018;SDS011;49105;46.046;10.760;2023-08-31T13:50:26;1.50;;;1.50;;
63018;SDS011;49105;46.046;10.760;2023-08-31T13:52:53;1.67;;;1.67;;
63018;SDS011;49105;46.046;10.760;2023-08-31T13:55:18;1.90;;;1.70;;
63018;SDS011;49105;46.046;10.760;2023-08-31T13:57:44;1.60;;;1.60;;
63018;SDS011;49105;46.046;10.760;2023-08-31T14:00:10;1.42;;;1.42;;
63018;SDS011;49105;46.046;10.760;2023-08-31T14:02:36;1.48;;;1.48;;
63018;SDS011;49105;46.046;10.760;2023-08-31T14:05:02;1.40;;;1.40;;
63018;SDS011;49105;46.046;10.760;2023-08-31T14:07:29;1.50;;;1.50;;
63018;SDS011;49105;46.046;10.760;2023-08-31T14:09:55;1.40;;;1.40;;
63018;SDS011;49105;46.046;10.760;2023-08-31T14:12:21;1.60;;;1.60;;
63018;SDS011;49105;46.046;10.760;2023-08-31T14:14:47;1.40;;;1.40;;
63018;SDS011;49105;46.046;10.760;2023-08-31T14:17:13;1.50;;;1.50;;
63018;SDS011;49105;46.046;10.760;2023-08-31T14:19:39;1.50;;;1.50;;
63018;SDS011;49105;46.046;10.760;2023-08-31T14:22:04;1.40;;;1.40;;
63018;SDS011;49105;46.046;10.760;2023-08-31T14:24:31;1.40;;;1.40;;
63018;SDS011;49105;46.046;10.760;2023-08-31T14:26:57;1.40;;;1.40;;
63018;SDS011;49105;46.046;10.760;2023-08-31T14:29:23;1.50;;;1.50;;
63018;SDS011;49105;46.046;10.760;2023-08-31T14:31:49;1.52;;;1.52;;
63018;SDS011;49105;46.046;10.760;2023-08-31T14:34:16;2.25;;;1.73;;
63018;SDS011;49105;46.046;10.760;2023-08-31T14:36:42;1.50;;;1.50;;
63018;SDS011;49105;46.046;10.760;2023-08-31T14:39:08;1.50;;;1.50;;
63018;SDS011;49105;46.046;10.760;2023-08-31T14:41:35;1.40;;;1.40;;
63018;SDS011;49105;46.046;10.760;2023-08-31T14:44:01;1.33;;;1.33;;
63018;SDS011;49105;46.046;10.760;2023-08-31T14:46:27;1.40;;;1.40;;